sensor_id;sensor_type;location;lat;lon;timestamp;temperature;humidity
23405;DHT22;11875;49.356;2.718;2022-08-20T00:00:17;19.40;99.90
23405;DHT22;11875;49.356;2.718;2022-08-20T00:02:55;19.40;99.90
23405;DHT22;11875;49.356;2.718;2022-08-20T00:05:31;19.40;99.90
23405;DHT22;11875;49.356;2.718;2022-08-20T00:07:57;19.40;99.90
23405;DHT22;11875;49.356;2.718;2022-08-20T00:10:27;19.30;99.90
23405;DHT22;11875;49.356;2.718;2022-08-20T00:12:54;19.30;99.90
23405;DHT22;11875;49.356;2.718;2022-08-20T00:15:26;19.20;99.90
23405;DHT22;11875;49.356;2.718;2022-08-20T00:17:54;19.30;99.90
23405;DHT22;11875;49.356;2.718;2022-08-20T00:20:22;19.20;99.90
23405;DHT22;11875;49.356;2.718;2022-08-20T00:22:49;19.10;99.90
23405;DHT22;11875;49.356;2.718;2022-08-20T00:25:16;19.10;99.90
23405;DHT22;11875;49.356;2.718;2022-08-20T00:27:41;19.10;99.90
23405;DHT22;11875;49.356;2.718;2022-08-20T00:30:10;19.10;99.90
23405;DHT22;11875;49.356;2.718;2022-08-20T00:32:52;19.00;99.90
23405;DHT22;11875;49.356;2.718;2022-08-20T00:35:20;19.00;99.90
23405;DHT22;11875;49.356;2.718;2022-08-20T00:37:47;19.00;99.90
23405;DHT22;11875;49.356;2.718;2022-08-20T00:40:15;18.90;99.90
23405;DHT22;11875;49.356;2.718;2022-08-20T00:42:44;18.90;99.90
23405;DHT22;11875;49.356;2.718;2022-08-20T00:45:12;18.90;99.90
23405;DHT22;11875;49.356;2.718;2022-08-20T00:47:38;18.80;99.90
23405;DHT22;11875;49.356;2.718;2022-08-20T00:50:13;18.80;99.90
23405;DHT22;11875;49.356;2.718;2022-08-20T00:52:40;18.80;99.90
23405;DHT22;11875;49.356;2.718;2022-08-20T00:55:11;18.80;99.90
23405;DHT22;11875;49.356;2.718;2022-08-20T00:57:46;18.80;99.90
23405;DHT22;11875;49.356;2.718;2022-08-20T01:00:17;18.70;99.90
23405;DHT22;11875;49.356;2.718;2022-08-20T01:02:44;18.70;99.90
23405;DHT22;11875;49.356;2.718;2022-08-20T01:05:11;18.70;99.90
23405;DHT22;11875;49.356;2.718;2022-08-20T01:07:37;18.70;99.90
23405;DHT22;11875;49.356;2.718;2022-08-20T01:10:13;18.60;99.90
23405;DHT22;11875;49.356;2.718;2022-08-20T01:12:41;18.60;99.90
23405;DHT22;11875;49.356;2.718;2022-08-20T01:15:11;18.50;99.90
23405;DHT22;11875;49.356;2.718;2022-08-20T01:17:45;18.60;99.90
23405;DHT22;11875;49.356;2.718;2022-08-20T01:20:33;18.60;99.90
23405;DHT22;11875;49.356;2.718;2022-08-20T01:31:23;18.50;99.90
23405;DHT22;11875;49.356;2.718;2022-08-20T01:33:50;18.50;99.90
23405;DHT22;11875;49.356;2.718;2022-08-20T01:36:21;18.50;99.90
23405;DHT22;11875;49.356;2.718;2022-08-20T01:38:48;18.50;99.90
23405;DHT22;11875;49.356;2.718;2022-08-20T01:41:40;18.30;99.90
23405;DHT22;11875;49.356;2.718;2022-08-20T01:44:10;18.30;99.90
23405;DHT22;11875;49.356;2.718;2022-08-20T01:46:40;18.20;99.90
23405;DHT22;11875;49.356;2.718;2022-08-20T01:49:09;18.20;99.90
23405;DHT22;11875;49.356;2.718;2022-08-20T01:51:36;18.20;99.90
23405;DHT22;11875;49.356;2.718;2022-08-20T01:54:01;18.20;99.90
23405;DHT22;11875;49.356;2.718;2022-08-20T01:56:30;18.20;99.90
23405;DHT22;11875;49.356;2.718;2022-08-20T01:58:58;18.10;99.90
23405;DHT22;11875;49.356;2.718;2022-08-20T02:03:53;18.00;99.90
23405;DHT22;11875;49.356;2.718;2022-08-20T02:06:21;18.00;99.90
23405;DHT22;11875;49.356;2.718;2022-08-20T02:08:59;18.00;99.90
23405;DHT22;11875;49.356;2.718;2022-08-20T02:11:26;18.00;99.90
23405;DHT22;11875;49.356;2.718;2022-08-20T02:13:53;18.10;99.90
23405;DHT22;11875;49.356;2.718;2022-08-20T02:16:25;18.10;99.90
23405;DHT22;11875;49.356;2.718;2022-08-20T02:18:56;18.00;99.90
23405;DHT22;11875;49.356;2.718;2022-08-20T02:21:24;18.00;99.90
23405;DHT22;11875;49.356;2.718;2022-08-20T02:23:51;17.90;99.90
23405;DHT22;11875;49.356;2.718;2022-08-20T02:26:17;18.00;99.90
23405;DHT22;11875;49.356;2.718;2022-08-20T02:28:49;17.90;99.90
23405;DHT22;11875;49.356;2.718;2022-08-20T02:31:20;17.80;99.90
23405;DHT22;11875;49.356;2.718;2022-08-20T02:33:46;17.90;99.90
23405;DHT22;11875;49.356;2.718;2022-08-20T02:36:13;17.90;99.90
23405;DHT22;11875;49.356;2.718;2022-08-20T02:38:40;17.90;99.90
23405;DHT22;11875;49.356;2.718;2022-08-20T02:41:07;17.90;99.90
23405;DHT22;11875;49.356;2.718;2022-08-20T02:43:33;17.80;99.90
23405;DHT22;11875;49.356;2.718;2022-08-20T02:45:59;17.80;99.90
23405;DHT22;11875;49.356;2.718;2022-08-20T02:48:25;17.80;99.90
23405;DHT22;11875;49.356;2.718;2022-08-20T02:50:55;17.70;99.90
23405;DHT22;11875;49.356;2.718;2022-08-20T02:53:22;17.70;99.90
23405;DHT22;11875;49.356;2.718;2022-08-20T02:55:48;17.70;99.90
23405;DHT22;11875;49.356;2.718;2022-08-20T02:58:15;17.70;99.90
23405;DHT22;11875;49.356;2.718;2022-08-20T03:00:41;17.70;99.90
23405;DHT22;11875;49.356;2.718;2022-08-20T03:03:08;17.70;99.90
23405;DHT22;11875;49.356;2.718;2022-08-20T03:05:34;17.70;99.90
23405;DHT22;11875;49.356;2.718;2022-08-20T03:08:01;17.70;99.90
23405;DHT22;11875;49.356;2.718;2022-08-20T03:10:30;17.70;99.90
23405;DHT22;11875;49.356;2.718;2022-08-20T03:12:57;17.70;99.90
23405;DHT22;11875;49.356;2.718;2022-08-20T03:15:24;17.70;99.90
23405;DHT22;11875;49.356;2.718;2022-08-20T03:17:49;17.70;99.90
23405;DHT22;11875;49.356;2.718;2022-08-20T03:20:15;17.60;99.90
23405;DHT22;11875;49.356;2.718;2022-08-20T03:22:41;17.60;99.90
23405;DHT22;11875;49.356;2.718;2022-08-20T03:25:07;17.60;99.90
23405;DHT22;11875;49.356;2.718;2022-08-20T03:27:33;17.50;99.90
23405;DHT22;11875;49.356;2.718;2022-08-20T03:29:59;17.50;99.90
23405;DHT22;11875;49.356;2.718;2022-08-20T03:32:24;17.50;99.90
23405;DHT22;11875;49.356;2.718;2022-08-20T03:34:50;17.40;99.90
23405;DHT22;11875;49.356;2.718;2022-08-20T03:37:16;17.40;99.90
23405;DHT22;11875;49.356;2.718;2022-08-20T03:39:42;17.40;99.90
23405;DHT22;11875;49.356;2.718;2022-08-20T03:42:07;17.30;99.90
23405;DHT22;11875;49.356;2.718;2022-08-20T03:44:33;17.30;99.90
23405;DHT22;11875;49.356;2.718;2022-08-20T03:47:02;17.30;99.90
23405;DHT22;11875;49.356;2.718;2022-08-20T03:49:28;17.30;99.90
23405;DHT22;11875;49.356;2.718;2022-08-20T03:51:54;17.30;99.90
23405;DHT22;11875;49.356;2.718;2022-08-20T03:54:19;17.30;99.90
23405;DHT22;11875;49.356;2.718;2022-08-20T03:56:45;17.30;99.90
23405;DHT22;11875;49.356;2.718;2022-08-20T03:59:10;17.30;99.90
23405;DHT22;11875;49.356;2.718;2022-08-20T04:01:36;17.30;99.90
23405;DHT22;11875;49.356;2.718;2022-08-20T04:04:02;17.30;99.90
23405;DHT22;11875;49.356;2.718;2022-08-20T04:06:27;17.20;99.90
23405;DHT22;11875;49.356;2.718;2022-08-20T04:08:54;17.30;99.90
23405;DHT22;11875;49.356;2.718;2022-08-20T04:11:20;17.20;99.90
23405;DHT22;11875;49.356;2.718;2022-08-20T04:13:46;17.20;99.90
23405;DHT22;11875;49.356;2.718;2022-08-20T04:16:11;17.20;99.90
23405;DHT22;11875;49.356;2.718;2022-08-20T04:18:37;17.10;99.90
23405;DHT22;11875;49.356;2.718;2022-08-20T04:21:03;17.10;99.90
23405;DHT22;11875;49.356;2.718;2022-08-20T04:23:32;17.10;99.90
23405;DHT22;11875;49.356;2.718;2022-08-20T04:25:58;17.10;99.90
23405;DHT22;11875;49.356;2.718;2022-08-20T04:28:25;17.10;99.90
23405;DHT22;11875;49.356;2.718;2022-08-20T04:31:01;17.20;99.90
23405;DHT22;11875;49.356;2.718;2022-08-20T04:33:29;17.10;99.90
23405;DHT22;11875;49.356;2.718;2022-08-20T04:35:57;17.00;99.90
23405;DHT22;11875;49.356;2.718;2022-08-20T04:38:25;17.00;99.90
23405;DHT22;11875;49.356;2.718;2022-08-20T04:40:51;17.00;99.90
23405;DHT22;11875;49.356;2.718;2022-08-20T04:43:31;17.00;99.90
23405;DHT22;11875;49.356;2.718;2022-08-20T04:46:00;16.90;99.90
23405;DHT22;11875;49.356;2.718;2022-08-20T04:48:27;17.00;99.90
23405;DHT22;11875;49.356;2.718;2022-08-20T04:50:54;17.00;99.90
23405;DHT22;11875;49.356;2.718;2022-08-20T04:53:23;17.00;99.90
23405;DHT22;11875;49.356;2.718;2022-08-20T04:55:50;17.00;99.90
23405;DHT22;11875;49.356;2.718;2022-08-20T04:58:38;17.00;99.90
23405;DHT22;11875;49.356;2.718;2022-08-20T05:01:08;17.00;99.90
23405;DHT22;11875;49.356;2.718;2022-08-20T05:03:36;17.00;99.90
23405;DHT22;11875;49.356;2.718;2022-08-20T05:06:05;17.10;99.90
23405;DHT22;11875;49.356;2.718;2022-08-20T05:08:32;17.10;99.90
23405;DHT22;11875;49.356;2.718;2022-08-20T05:10:58;17.00;99.90
23405;DHT22;11875;49.356;2.718;2022-08-20T05:13:25;17.00;99.90
23405;DHT22;11875;49.356;2.718;2022-08-20T05:15:51;17.00;99.90
23405;DHT22;11875;49.356;2.718;2022-08-20T05:18:20;17.00;99.90
23405;DHT22;11875;49.356;2.718;2022-08-20T05:20:46;17.00;99.90
23405;DHT22;11875;49.356;2.718;2022-08-20T05:23:15;17.00;99.90
23405;DHT22;11875;49.356;2.718;2022-08-20T05:25:42;17.00;99.90
23405;DHT22;11875;49.356;2.718;2022-08-20T05:28:11;17.10;99.90
23405;DHT22;11875;49.356;2.718;2022-08-20T05:30:41;17.00;99.90
23405;DHT22;11875;49.356;2.718;2022-08-20T05:33:08;17.00;99.90
23405;DHT22;11875;49.356;2.718;2022-08-20T05:35:36;17.00;99.90
23405;DHT22;11875;49.356;2.718;2022-08-20T05:38:08;17.00;99.90
23405;DHT22;11875;49.356;2.718;2022-08-20T05:40:36;16.90;99.90
23405;DHT22;11875;49.356;2.718;2022-08-20T05:43:01;17.00;99.90
23405;DHT22;11875;49.356;2.718;2022-08-20T05:45:29;17.10;99.90
23405;DHT22;11875;49.356;2.718;2022-08-20T05:47:55;17.10;99.90
23405;DHT22;11875;49.356;2.718;2022-08-20T05:50:23;17.20;99.90
23405;DHT22;11875;49.356;2.718;2022-08-20T05:52:49;17.10;99.90
23405;DHT22;11875;49.356;2.718;2022-08-20T05:55:15;17.10;99.90
23405;DHT22;11875;49.356;2.718;2022-08-20T05:57:41;17.10;99.90
23405;DHT22;11875;49.356;2.718;2022-08-20T06:00:10;17.10;99.90
23405;DHT22;11875;49.356;2.718;2022-08-20T06:02:36;17.10;99.90
23405;DHT22;11875;49.356;2.718;2022-08-20T06:05:21;17.10;99.90
23405;DHT22;11875;49.356;2.718;2022-08-20T06:07:46;17.10;99.90
23405;DHT22;11875;49.356;2.718;2022-08-20T06:10:12;17.10;99.90
23405;DHT22;11875;49.356;2.718;2022-08-20T06:12:38;17.20;99.90
23405;DHT22;11875;49.356;2.718;2022-08-20T06:15:05;17.20;99.90
23405;DHT22;11875;49.356;2.718;2022-08-20T06:17:31;17.20;99.90
23405;DHT22;11875;49.356;2.718;2022-08-20T06:20:02;17.20;99.90
23405;DHT22;11875;49.356;2.718;2022-08-20T06:22:29;17.30;99.90
23405;DHT22;11875;49.356;2.718;2022-08-20T06:24:55;17.30;99.90
23405;DHT22;11875;49.356;2.718;2022-08-20T06:27:21;17.30;99.90
23405;DHT22;11875;49.356;2.718;2022-08-20T06:29:47;17.40;99.90
23405;DHT22;11875;49.356;2.718;2022-08-20T06:32:13;17.50;99.90
23405;DHT22;11875;49.356;2.718;2022-08-20T06:34:38;17.60;99.90
23405;DHT22;11875;49.356;2.718;2022-08-20T06:37:16;17.70;99.90
23405;DHT22;11875;49.356;2.718;2022-08-20T06:39:43;17.70;99.90
23405;DHT22;11875;49.356;2.718;2022-08-20T06:42:09;17.70;99.90
23405;DHT22;11875;49.356;2.718;2022-08-20T06:44:35;17.70;99.90
23405;DHT22;11875;49.356;2.718;2022-08-20T06:47:02;17.70;99.90
23405;DHT22;11875;49.356;2.718;2022-08-20T06:49:29;17.70;99.90
23405;DHT22;11875;49.356;2.718;2022-08-20T06:51:55;17.70;99.90
23405;DHT22;11875;49.356;2.718;2022-08-20T06:54:21;17.70;99.90
23405;DHT22;11875;49.356;2.718;2022-08-20T06:56:47;17.70;99.90
23405;DHT22;11875;49.356;2.718;2022-08-20T06:59:13;17.60;99.90
23405;DHT22;11875;49.356;2.718;2022-08-20T07:01:38;17.50;99.90
23405;DHT22;11875;49.356;2.718;2022-08-20T07:04:04;17.40;99.90
23405;DHT22;11875;49.356;2.718;2022-08-20T07:06:32;17.30;99.90
23405;DHT22;11875;49.356;2.718;2022-08-20T07:08:58;17.30;99.90
23405;DHT22;11875;49.356;2.718;2022-08-20T07:11:24;17.40;99.90
23405;DHT22;11875;49.356;2.718;2022-08-20T07:13:50;17.40;99.90
23405;DHT22;11875;49.356;2.718;2022-08-20T07:16:16;17.60;99.90
23405;DHT22;11875;49.356;2.718;2022-08-20T07:18:41;17.70;99.90
23405;DHT22;11875;49.356;2.718;2022-08-20T07:21:07;17.70;99.90
23405;DHT22;11875;49.356;2.718;2022-08-20T07:23:33;17.80;99.90
23405;DHT22;11875;49.356;2.718;2022-08-20T07:25:59;17.80;99.90
23405;DHT22;11875;49.356;2.718;2022-08-20T07:28:26;17.90;99.90
23405;DHT22;11875;49.356;2.718;2022-08-20T07:30:53;18.00;99.90
23405;DHT22;11875;49.356;2.718;2022-08-20T07:33:37;18.20;99.90
23405;DHT22;11875;49.356;2.718;2022-08-20T07:36:05;18.10;99.90
23405;DHT22;11875;49.356;2.718;2022-08-20T07:38:32;18.20;99.90
23405;DHT22;11875;49.356;2.718;2022-08-20T07:41:01;18.30;99.90
23405;DHT22;11875;49.356;2.718;2022-08-20T07:43:27;18.40;99.90
23405;DHT22;11875;49.356;2.718;2022-08-20T07:45:54;18.50;99.90
23405;DHT22;11875;49.356;2.718;2022-08-20T07:48:21;18.70;99.90
23405;DHT22;11875;49.356;2.718;2022-08-20T07:50:51;18.90;99.90
23405;DHT22;11875;49.356;2.718;2022-08-20T07:53:16;19.30;99.90
23405;DHT22;11875;49.356;2.718;2022-08-20T07:55:42;19.60;99.90
23405;DHT22;11875;49.356;2.718;2022-08-20T07:58:12;20.00;99.90
23405;DHT22;11875;49.356;2.718;2022-08-20T08:00:38;20.40;99.90
23405;DHT22;11875;49.356;2.718;2022-08-20T08:03:05;20.70;99.90
23405;DHT22;11875;49.356;2.718;2022-08-20T08:05:32;20.80;99.90
23405;DHT22;11875;49.356;2.718;2022-08-20T08:07:58;21.00;99.90
23405;DHT22;11875;49.356;2.718;2022-08-20T08:10:26;21.20;99.90
23405;DHT22;11875;49.356;2.718;2022-08-20T08:12:56;21.40;99.90
23405;DHT22;11875;49.356;2.718;2022-08-20T08:15:29;21.60;99.90
23405;DHT22;11875;49.356;2.718;2022-08-20T08:18:03;21.70;99.90
23405;DHT22;11875;49.356;2.718;2022-08-20T08:20:33;21.80;99.90
23405;DHT22;11875;49.356;2.718;2022-08-20T08:22:59;21.90;99.90
23405;DHT22;11875;49.356;2.718;2022-08-20T08:25:25;22.10;99.90
23405;DHT22;11875;49.356;2.718;2022-08-20T08:27:50;22.20;99.90
23405;DHT22;11875;49.356;2.718;2022-08-20T08:30:16;22.20;99.90
23405;DHT22;11875;49.356;2.718;2022-08-20T08:32:42;22.10;99.90
23405;DHT22;11875;49.356;2.718;2022-08-20T08:35:26;22.20;99.90
23405;DHT22;11875;49.356;2.718;2022-08-20T08:37:52;22.40;99.90
23405;DHT22;11875;49.356;2.718;2022-08-20T08:40:21;22.50;99.90
23405;DHT22;11875;49.356;2.718;2022-08-20T08:42:49;22.60;99.90
23405;DHT22;11875;49.356;2.718;2022-08-20T08:45:20;22.60;99.90
23405;DHT22;11875;49.356;2.718;2022-08-20T08:47:46;22.70;99.90
23405;DHT22;11875;49.356;2.718;2022-08-20T08:50:27;22.80;99.90
23405;DHT22;11875;49.356;2.718;2022-08-20T08:52:56;23.00;99.90
23405;DHT22;11875;49.356;2.718;2022-08-20T08:55:26;23.10;99.90
23405;DHT22;11875;49.356;2.718;2022-08-20T08:57:56;23.20;99.90
23405;DHT22;11875;49.356;2.718;2022-08-20T09:00:24;23.40;99.90
23405;DHT22;11875;49.356;2.718;2022-08-20T09:03:00;23.30;99.90
23405;DHT22;11875;49.356;2.718;2022-08-20T09:05:33;23.30;99.90
23405;DHT22;11875;49.356;2.718;2022-08-20T09:08:02;23.30;99.90
23405;DHT22;11875;49.356;2.718;2022-08-20T09:10:28;23.50;99.90
23405;DHT22;11875;49.356;2.718;2022-08-20T09:12:54;23.60;99.90
23405;DHT22;11875;49.356;2.718;2022-08-20T09:15:20;23.60;99.90
23405;DHT22;11875;49.356;2.718;2022-08-20T09:17:45;23.70;99.90
23405;DHT22;11875;49.356;2.718;2022-08-20T09:20:11;23.70;99.90
23405;DHT22;11875;49.356;2.718;2022-08-20T09:22:36;23.90;99.90
23405;DHT22;11875;49.356;2.718;2022-08-20T09:25:03;24.00;99.80
23405;DHT22;11875;49.356;2.718;2022-08-20T09:27:28;24.20;99.80
23405;DHT22;11875;49.356;2.718;2022-08-20T09:29:55;24.20;99.10
23405;DHT22;11875;49.356;2.718;2022-08-20T09:32:23;24.20;98.90
23405;DHT22;11875;49.356;2.718;2022-08-20T09:34:51;24.30;99.00
23405;DHT22;11875;49.356;2.718;2022-08-20T09:37:21;24.20;98.60
23405;DHT22;11875;49.356;2.718;2022-08-20T09:39:47;24.20;98.80
23405;DHT22;11875;49.356;2.718;2022-08-20T09:42:16;24.20;98.80
23405;DHT22;11875;49.356;2.718;2022-08-20T09:44:43;24.20;98.20
23405;DHT22;11875;49.356;2.718;2022-08-20T09:47:09;24.10;98.40
23405;DHT22;11875;49.356;2.718;2022-08-20T09:49:35;24.00;98.40
23405;DHT22;11875;49.356;2.718;2022-08-20T09:52:03;24.00;98.20
23405;DHT22;11875;49.356;2.718;2022-08-20T09:54:31;23.90;98.40
23405;DHT22;11875;49.356;2.718;2022-08-20T09:57:01;23.90;97.90
23405;DHT22;11875;49.356;2.718;2022-08-20T09:59:29;23.80;97.90
23405;DHT22;11875;49.356;2.718;2022-08-20T10:01:55;23.60;97.70
23405;DHT22;11875;49.356;2.718;2022-08-20T10:04:20;23.60;97.90
23405;DHT22;11875;49.356;2.718;2022-08-20T10:06:46;23.50;98.30
23405;DHT22;11875;49.356;2.718;2022-08-20T10:09:12;23.50;98.20
23405;DHT22;11875;49.356;2.718;2022-08-20T10:11:37;23.60;98.20
23405;DHT22;11875;49.356;2.718;2022-08-20T10:14:03;23.80;97.50
23405;DHT22;11875;49.356;2.718;2022-08-20T10:16:29;24.00;97.80
23405;DHT22;11875;49.356;2.718;2022-08-20T10:18:56;24.30;97.00
23405;DHT22;11875;49.356;2.718;2022-08-20T10:21:22;24.20;96.70
23405;DHT22;11875;49.356;2.718;2022-08-20T10:23:47;24.50;96.70
23405;DHT22;11875;49.356;2.718;2022-08-20T10:26:14;24.70;96.50
23405;DHT22;11875;49.356;2.718;2022-08-20T10:28:42;24.80;95.30
23405;DHT22;11875;49.356;2.718;2022-08-20T10:31:10;24.80;94.50
23405;DHT22;11875;49.356;2.718;2022-08-20T10:33:37;24.80;94.60
23405;DHT22;11875;49.356;2.718;2022-08-20T10:36:20;24.80;95.20
23405;DHT22;11875;49.356;2.718;2022-08-20T10:38:46;24.90;93.90
23405;DHT22;11875;49.356;2.718;2022-08-20T10:41:13;24.90;93.90
23405;DHT22;11875;49.356;2.718;2022-08-20T10:43:38;25.10;93.90
23405;DHT22;11875;49.356;2.718;2022-08-20T10:46:04;25.30;93.10
23405;DHT22;11875;49.356;2.718;2022-08-20T10:48:30;25.40;93.10
23405;DHT22;11875;49.356;2.718;2022-08-20T10:50:56;25.70;92.60
23405;DHT22;11875;49.356;2.718;2022-08-20T10:53:22;25.70;92.80
23405;DHT22;11875;49.356;2.718;2022-08-20T10:55:47;25.90;92.30
23405;DHT22;11875;49.356;2.718;2022-08-20T10:58:13;25.80;92.80
23405;DHT22;11875;49.356;2.718;2022-08-20T11:00:40;25.70;92.80
23405;DHT22;11875;49.356;2.718;2022-08-20T11:03:06;25.60;93.00
23405;DHT22;11875;49.356;2.718;2022-08-20T11:05:31;25.50;91.80
23405;DHT22;11875;49.356;2.718;2022-08-20T11:07:57;25.40;91.90
23405;DHT22;11875;49.356;2.718;2022-08-20T11:10:27;25.50;91.60
23405;DHT22;11875;49.356;2.718;2022-08-20T11:12:53;25.60;91.30
23405;DHT22;11875;49.356;2.718;2022-08-20T11:15:18;25.60;91.40
23405;DHT22;11875;49.356;2.718;2022-08-20T11:17:45;25.60;91.50
23405;DHT22;11875;49.356;2.718;2022-08-20T11:20:12;25.70;91.80
23405;DHT22;11875;49.356;2.718;2022-08-20T11:22:38;25.70;91.70
23405;DHT22;11875;49.356;2.718;2022-08-20T11:25:05;25.30;91.60
23405;DHT22;11875;49.356;2.718;2022-08-20T11:27:34;25.90;91.80
23405;DHT22;11875;49.356;2.718;2022-08-20T11:30:00;26.00;91.10
23405;DHT22;11875;49.356;2.718;2022-08-20T11:32:26;26.10;91.10
23405;DHT22;11875;49.356;2.718;2022-08-20T11:34:51;26.10;90.70
23405;DHT22;11875;49.356;2.718;2022-08-20T11:37:19;26.20;91.00
23405;DHT22;11875;49.356;2.718;2022-08-20T11:39:46;26.30;90.40
23405;DHT22;11875;49.356;2.718;2022-08-20T11:42:12;26.40;89.80
23405;DHT22;11875;49.356;2.718;2022-08-20T11:44:38;26.50;90.10
23405;DHT22;11875;49.356;2.718;2022-08-20T11:47:05;26.60;90.00
23405;DHT22;11875;49.356;2.718;2022-08-20T11:49:35;26.50;89.00
23405;DHT22;11875;49.356;2.718;2022-08-20T11:52:02;26.50;89.30
23405;DHT22;11875;49.356;2.718;2022-08-20T11:54:28;26.40;89.20
23405;DHT22;11875;49.356;2.718;2022-08-20T11:56:54;26.40;89.40
23405;DHT22;11875;49.356;2.718;2022-08-20T11:59:25;26.40;89.80
23405;DHT22;11875;49.356;2.718;2022-08-20T12:01:50;26.40;88.30
23405;DHT22;11875;49.356;2.718;2022-08-20T12:04:18;26.50;87.90
23405;DHT22;11875;49.356;2.718;2022-08-20T12:06:44;26.50;88.50
23405;DHT22;11875;49.356;2.718;2022-08-20T12:09:09;26.50;88.70
23405;DHT22;11875;49.356;2.718;2022-08-20T12:11:35;26.70;89.00
23405;DHT22;11875;49.356;2.718;2022-08-20T12:14:01;26.80;89.10
23405;DHT22;11875;49.356;2.718;2022-08-20T12:16:26;26.90;89.60
23405;DHT22;11875;49.356;2.718;2022-08-20T12:18:52;27.00;89.60
23405;DHT22;11875;49.356;2.718;2022-08-20T12:21:17;27.30;87.60
23405;DHT22;11875;49.356;2.718;2022-08-20T12:23:43;27.50;84.00
23405;DHT22;11875;49.356;2.718;2022-08-20T12:26:09;27.60;85.00
23405;DHT22;11875;49.356;2.718;2022-08-20T12:28:35;27.60;86.60
23405;DHT22;11875;49.356;2.718;2022-08-20T12:31:01;27.60;85.30
23405;DHT22;11875;49.356;2.718;2022-08-20T12:33:26;27.60;86.50
23405;DHT22;11875;49.356;2.718;2022-08-20T12:35:52;27.60;86.20
23405;DHT22;11875;49.356;2.718;2022-08-20T12:38:18;27.60;85.70
23405;DHT22;11875;49.356;2.718;2022-08-20T12:40:43;27.40;86.60
23405;DHT22;11875;49.356;2.718;2022-08-20T12:43:09;27.50;87.20
23405;DHT22;11875;49.356;2.718;2022-08-20T12:45:35;27.60;85.30
23405;DHT22;11875;49.356;2.718;2022-08-20T12:48:10;27.70;86.10
23405;DHT22;11875;49.356;2.718;2022-08-20T12:50:38;27.90;85.90
23405;DHT22;11875;49.356;2.718;2022-08-20T12:53:04;28.10;84.80
23405;DHT22;11875;49.356;2.718;2022-08-20T12:55:30;28.20;84.40
23405;DHT22;11875;49.356;2.718;2022-08-20T12:57:59;28.20;84.20
23405;DHT22;11875;49.356;2.718;2022-08-20T13:00:27;28.30;83.30
23405;DHT22;11875;49.356;2.718;2022-08-20T13:02:54;28.30;83.10
23405;DHT22;11875;49.356;2.718;2022-08-20T13:05:20;28.30;82.50
23405;DHT22;11875;49.356;2.718;2022-08-20T13:07:46;28.30;83.30
23405;DHT22;11875;49.356;2.718;2022-08-20T13:10:24;28.10;83.50
23405;DHT22;11875;49.356;2.718;2022-08-20T13:12:50;27.90;83.50
23405;DHT22;11875;49.356;2.718;2022-08-20T13:15:17;27.80;84.10
23405;DHT22;11875;49.356;2.718;2022-08-20T13:17:42;27.70;84.70
23405;DHT22;11875;49.356;2.718;2022-08-20T13:20:13;27.70;84.70
23405;DHT22;11875;49.356;2.718;2022-08-20T13:22:39;27.70;84.00
23405;DHT22;11875;49.356;2.718;2022-08-20T13:25:06;27.60;83.50
23405;DHT22;11875;49.356;2.718;2022-08-20T13:27:32;27.50;83.80
23405;DHT22;11875;49.356;2.718;2022-08-20T13:29:57;27.60;83.70
23405;DHT22;11875;49.356;2.718;2022-08-20T13:32:23;27.70;83.50
23405;DHT22;11875;49.356;2.718;2022-08-20T13:34:49;27.60;83.50
23405;DHT22;11875;49.356;2.718;2022-08-20T13:37:18;27.70;82.20
23405;DHT22;11875;49.356;2.718;2022-08-20T13:39:44;27.80;82.50
23405;DHT22;11875;49.356;2.718;2022-08-20T13:42:11;28.00;82.40
23405;DHT22;11875;49.356;2.718;2022-08-20T13:44:37;28.00;80.50
23405;DHT22;11875;49.356;2.718;2022-08-20T13:47:21;28.00;80.50
23405;DHT22;11875;49.356;2.718;2022-08-20T13:49:53;28.10;81.00
23405;DHT22;11875;49.356;2.718;2022-08-20T13:52:18;28.20;80.20
23405;DHT22;11875;49.356;2.718;2022-08-20T13:54:44;28.30;80.50
23405;DHT22;11875;49.356;2.718;2022-08-20T13:57:12;28.30;80.60
23405;DHT22;11875;49.356;2.718;2022-08-20T13:59:40;28.30;79.80
23405;DHT22;11875;49.356;2.718;2022-08-20T14:02:07;28.40;79.90
23405;DHT22;11875;49.356;2.718;2022-08-20T14:04:34;28.40;79.90
23405;DHT22;11875;49.356;2.718;2022-08-20T14:07:18;28.40;80.20
23405;DHT22;11875;49.356;2.718;2022-08-20T14:09:46;28.60;79.90
23405;DHT22;11875;49.356;2.718;2022-08-20T14:12:13;28.70;79.00
23405;DHT22;11875;49.356;2.718;2022-08-20T14:14:39;28.60;79.80
23405;DHT22;11875;49.356;2.718;2022-08-20T14:17:26;28.60;79.20
23405;DHT22;11875;49.356;2.718;2022-08-20T14:19:55;28.70;78.90
23405;DHT22;11875;49.356;2.718;2022-08-20T14:22:21;28.60;78.50
23405;DHT22;11875;49.356;2.718;2022-08-20T14:24:47;28.80;79.40
23405;DHT22;11875;49.356;2.718;2022-08-20T14:27:14;28.80;78.10
23405;DHT22;11875;49.356;2.718;2022-08-20T14:29:42;28.90;77.60
23405;DHT22;11875;49.356;2.718;2022-08-20T14:32:09;29.00;76.90
23405;DHT22;11875;49.356;2.718;2022-08-20T14:34:35;29.00;78.20
23405;DHT22;11875;49.356;2.718;2022-08-20T14:39:39;29.00;77.00
23405;DHT22;11875;49.356;2.718;2022-08-20T14:42:04;28.70;76.60
23405;DHT22;11875;49.356;2.718;2022-08-20T14:44:30;28.50;76.80
23405;DHT22;11875;49.356;2.718;2022-08-20T14:46:56;28.30;78.20
23405;DHT22;11875;49.356;2.718;2022-08-20T14:49:22;28.40;78.00
23405;DHT22;11875;49.356;2.718;2022-08-20T14:51:48;28.60;78.10
23405;DHT22;11875;49.356;2.718;2022-08-20T14:54:13;28.60;78.50
23405;DHT22;11875;49.356;2.718;2022-08-20T14:56:39;28.70;77.50
23405;DHT22;11875;49.356;2.718;2022-08-20T14:59:05;28.90;77.00
23405;DHT22;11875;49.356;2.718;2022-08-20T15:01:31;28.90;76.10
23405;DHT22;11875;49.356;2.718;2022-08-20T15:03:56;28.80;75.70
23405;DHT22;11875;49.356;2.718;2022-08-20T15:06:22;28.80;76.20
23405;DHT22;11875;49.356;2.718;2022-08-20T15:08:47;28.70;76.10
23405;DHT22;11875;49.356;2.718;2022-08-20T15:11:13;28.70;76.80
23405;DHT22;11875;49.356;2.718;2022-08-20T15:13:38;28.90;76.40
23405;DHT22;11875;49.356;2.718;2022-08-20T15:16:04;28.80;76.10
23405;DHT22;11875;49.356;2.718;2022-08-20T15:18:30;28.80;76.60
23405;DHT22;11875;49.356;2.718;2022-08-20T15:20:56;28.70;76.80
23405;DHT22;11875;49.356;2.718;2022-08-20T15:23:21;28.70;75.70
23405;DHT22;11875;49.356;2.718;2022-08-20T15:25:48;28.70;76.20
23405;DHT22;11875;49.356;2.718;2022-08-20T15:28:13;28.70;75.30
23405;DHT22;11875;49.356;2.718;2022-08-20T15:30:40;28.70;75.50
23405;DHT22;11875;49.356;2.718;2022-08-20T15:33:07;28.70;75.20
23405;DHT22;11875;49.356;2.718;2022-08-20T15:35:33;28.70;75.00
23405;DHT22;11875;49.356;2.718;2022-08-20T15:37:59;28.70;74.60
23405;DHT22;11875;49.356;2.718;2022-08-20T15:40:27;28.80;75.10
23405;DHT22;11875;49.356;2.718;2022-08-20T15:42:54;29.00;75.10
23405;DHT22;11875;49.356;2.718;2022-08-20T15:45:20;28.90;74.30